sensor_id;sensor_type;location;lat;lon;timestamp;pressure;altitude;pressure_sealevel;temperature;humidity
47785;BME280;35233;55.686;37.848;2023-06-05T00:00:40;100198.84;;;15.96;53.50
47785;BME280;35233;55.686;37.848;2023-06-05T00:03:06;100200.75;;;15.94;53.23
47785;BME280;35233;55.686;37.848;2023-06-05T00:05:31;100204.19;;;15.96;53.16
47785;BME280;35233;55.686;37.848;2023-06-05T00:07:57;100196.25;;;15.95;53.23
47785;BME280;35233;55.686;37.848;2023-06-05T00:10:22;100197.19;;;15.94;53.50
47785;BME280;35233;55.686;37.848;2023-06-05T00:12:49;100204.38;;;15.92;53.05
47785;BME280;35233;55.686;37.848;2023-06-05T00:15:15;100195.59;;;15.90;53.58
47785;BME280;35233;55.686;37.848;2023-06-05T00:17:40;100187.63;;;15.88;53.51
47785;BME280;35233;55.686;37.848;2023-06-05T00:20:07;100196.53;;;15.89;53.58
47785;BME280;35233;55.686;37.848;2023-06-05T00:22:35;100198.25;;;15.90;53.31
47785;BME280;35233;55.686;37.848;2023-06-05T00:25:00;100194.84;;;15.86;53.61
47785;BME280;35233;55.686;37.848;2023-06-05T00:27:26;100193.88;;;15.89;53.01
47785;BME280;35233;55.686;37.848;2023-06-05T00:29:51;100187.84;;;15.83;53.43
47785;BME280;35233;55.686;37.848;2023-06-05T00:32:17;100186.03;;;15.84;53.39
47785;BME280;35233;55.686;37.848;2023-06-05T00:34:42;100194.00;;;15.86;53.56
47785;BME280;35233;55.686;37.848;2023-06-05T00:37:08;100187.97;;;15.80;53.46
47785;BME280;35233;55.686;37.848;2023-06-05T00:39:34;100186.19;;;15.81;53.57
47785;BME280;35233;55.686;37.848;2023-06-05T00:42:00;100194.03;;;15.84;53.49
47785;BME280;35233;55.686;37.848;2023-06-05T00:44:25;100195.75;;;15.85;53.40
47785;BME280;35233;55.686;37.848;2023-06-05T00:46:52;100195.03;;;15.81;53.54
47785;BME280;35233;55.686;37.848;2023-06-05T00:49:18;100202.91;;;15.84;53.21
47785;BME280;35233;55.686;37.848;2023-06-05T00:51:45;100190.03;;;15.74;53.45
47785;BME280;35233;55.686;37.848;2023-06-05T00:54:12;100190.69;;;15.79;53.56
47785;BME280;35233;55.686;37.848;2023-06-05T00:56:40;100201.16;;;15.83;53.44
47785;BME280;35233;55.686;37.848;2023-06-05T00:59:07;100207.44;;;15.82;53.41
47785;BME280;35233;55.686;37.848;2023-06-05T01:01:33;100201.22;;;15.82;53.73
47785;BME280;35233;55.686;37.848;2023-06-05T01:04:00;100199.50;;;15.81;53.49
47785;BME280;35233;55.686;37.848;2023-06-05T01:06:27;100203.03;;;15.81;53.27
47785;BME280;35233;55.686;37.848;2023-06-05T01:08:53;100196.78;;;15.82;53.67
47785;BME280;35233;55.686;37.848;2023-06-05T01:11:47;100186.31;;;15.78;53.46
47785;BME280;35233;55.686;37.848;2023-06-05T01:14:23;100191.47;;;15.82;53.40
47785;BME280;35233;55.686;37.848;2023-06-05T01:16:51;100192.31;;;15.83;53.71
47785;BME280;35233;55.686;37.848;2023-06-05T01:19:20;100194.16;;;15.81;53.37
47785;BME280;35233;55.686;37.848;2023-06-05T01:21:47;100195.09;;;15.80;53.49
47785;BME280;35233;55.686;37.848;2023-06-05T01:24:13;100194.16;;;15.81;53.22
47785;BME280;35233;55.686;37.848;2023-06-05T01:27:14;100190.66;;;15.80;53.69
47785;BME280;35233;55.686;37.848;2023-06-05T01:32:34;100186.22;;;15.79;53.30
47785;BME280;35233;55.686;37.848;2023-06-05T01:35:08;100185.22;;;15.82;53.37
47785;BME280;35233;55.686;37.848;2023-06-05T01:37:41;100185.22;;;15.82;53.14
47785;BME280;35233;55.686;37.848;2023-06-05T01:40:13;100192.44;;;15.80;53.55
47785;BME280;35233;55.686;37.848;2023-06-05T01:42:42;100182.66;;;15.80;53.06
47785;BME280;35233;55.686;37.848;2023-06-05T01:45:09;100187.84;;;15.83;53.56
47785;BME280;35233;55.686;37.848;2023-06-05T01:47:36;100192.38;;;15.81;53.72
47785;BME280;35233;55.686;37.848;2023-06-05T01:50:03;100182.56;;;15.82;53.23
47785;BME280;35233;55.686;37.848;2023-06-05T01:52:29;100187.00;;;15.83;53.62
47785;BME280;35233;55.686;37.848;2023-06-05T01:54:55;100198.50;;;15.83;53.15
47785;BME280;35233;55.686;37.848;2023-06-05T01:57:26;100200.91;;;15.90;53.46
47785;BME280;35233;55.686;37.848;2023-06-05T01:59:53;100201.84;;;15.89;53.35
47785;BME280;35233;55.686;37.848;2023-06-05T02:02:19;100207.84;;;15.94;53.36
47785;BME280;35233;55.686;37.848;2023-06-05T02:04:47;100208.72;;;15.94;53.13
47785;BME280;35233;55.686;37.848;2023-06-05T02:07:13;100205.03;;;15.97;53.02
47785;BME280;35233;55.686;37.848;2023-06-05T02:09:43;100197.94;;;15.97;53.09
47785;BME280;35233;55.686;37.848;2023-06-05T02:12:08;100199.84;;;15.94;53.33
47785;BME280;35233;55.686;37.848;2023-06-05T02:14:34;100198.13;;;15.93;53.00
47785;BME280;35233;55.686;37.848;2023-06-05T02:17:01;100196.41;;;15.92;53.29
47785;BME280;35233;55.686;37.848;2023-06-05T02:19:34;100199.63;;;16.00;52.84
47785;BME280;35233;55.686;37.848;2023-06-05T02:21:59;100187.19;;;15.99;52.96
47785;BME280;35233;55.686;37.848;2023-06-05T02:24:25;100200.09;;;16.10;52.51
47785;BME280;35233;55.686;37.848;2023-06-05T02:26:51;100191.16;;;16.11;53.00
47785;BME280;35233;55.686;37.848;2023-06-05T02:29:17;100207.69;;;16.19;52.58
47785;BME280;35233;55.686;37.848;2023-06-05T02:31:42;100199.56;;;16.22;52.42
47785;BME280;35233;55.686;37.848;2023-06-05T02:34:08;100203.94;;;16.23;52.31
47785;BME280;35233;55.686;37.848;2023-06-05T02:36:34;100203.75;;;16.27;52.45
47785;BME280;35233;55.686;37.848;2023-06-05T02:39:01;100192.28;;;16.25;52.52
47785;BME280;35233;55.686;37.848;2023-06-05T02:41:27;100196.63;;;16.28;52.21
47785;BME280;35233;55.686;37.848;2023-06-05T02:43:53;100200.00;;;16.32;52.59
47785;BME280;35233;55.686;37.848;2023-06-05T02:46:20;100205.44;;;16.30;52.95
47785;BME280;35233;55.686;37.848;2023-06-05T02:48:46;100197.47;;;16.28;52.73
47785;BME280;35233;55.686;37.848;2023-06-05T02:51:12;100197.84;;;16.21;52.21
47785;BME280;35233;55.686;37.848;2023-06-05T02:53:38;100210.91;;;16.27;52.49
47785;BME280;35233;55.686;37.848;2023-06-05T02:56:04;100211.81;;;16.26;52.53
47785;BME280;35233;55.686;37.848;2023-06-05T02:58:30;100199.38;;;16.26;52.51
47785;BME280;35233;55.686;37.848;2023-06-05T03:00:59;100199.44;;;16.25;52.61
47785;BME280;35233;55.686;37.848;2023-06-05T03:03:30;100203.09;;;16.22;52.51
47785;BME280;35233;55.686;37.848;2023-06-05T03:05:58;100207.41;;;16.25;52.46
47785;BME280;35233;55.686;37.848;2023-06-05T03:08:31;100206.47;;;16.26;52.70
47785;BME280;35233;55.686;37.848;2023-06-05T03:11:01;100214.25;;;16.32;52.63
47785;BME280;35233;55.686;37.848;2023-06-05T03:13:27;100210.50;;;16.36;52.00
47785;BME280;35233;55.686;37.848;2023-06-05T03:15:54;100217.22;;;16.45;52.23
47785;BME280;35233;55.686;37.848;2023-06-05T03:18:25;100209.09;;;16.48;52.00
47785;BME280;35233;55.686;37.848;2023-06-05T03:20:51;100204.63;;;16.48;52.26
47785;BME280;35233;55.686;37.848;2023-06-05T03:23:21;100205.44;;;16.50;52.36
47785;BME280;35233;55.686;37.848;2023-06-05T03:25:47;100202.44;;;16.58;51.64
47785;BME280;35233;55.686;37.848;2023-06-05T03:28:12;100211.94;;;16.64;51.53
47785;BME280;35233;55.686;37.848;2023-06-05T03:30:38;100213.75;;;16.63;51.80
47785;BME280;35233;55.686;37.848;2023-06-05T03:33:05;100206.16;;;16.54;51.84
47785;BME280;35233;55.686;37.848;2023-06-05T03:35:31;100201.81;;;16.51;51.92
47785;BME280;35233;55.686;37.848;2023-06-05T03:37:58;100218.50;;;16.57;51.58
47785;BME280;35233;55.686;37.848;2023-06-05T03:40:23;100199.91;;;16.55;51.33
47785;BME280;35233;55.686;37.848;2023-06-05T03:42:49;100215.13;;;16.72;51.28
47785;BME280;35233;55.686;37.848;2023-06-05T03:45:15;100214.66;;;16.84;50.96
47785;BME280;35233;55.686;37.848;2023-06-05T03:47:41;100209.94;;;16.89;51.14
47785;BME280;35233;55.686;37.848;2023-06-05T03:50:07;100208.28;;;16.87;51.11
47785;BME280;35233;55.686;37.848;2023-06-05T03:52:32;100195.75;;;16.89;51.63
47785;BME280;35233;55.686;37.848;2023-06-05T03:54:58;100209.09;;;16.89;50.99
47785;BME280;35233;55.686;37.848;2023-06-05T03:57:25;100191.41;;;16.86;51.02
47785;BME280;35233;55.686;37.848;2023-06-05T03:59:51;100190.41;;;16.89;51.05
47785;BME280;35233;55.686;37.848;2023-06-05T04:02:16;100205.66;;;17.06;51.10
47785;BME280;35233;55.686;37.848;2023-06-05T04:04:42;100204.25;;;17.16;50.92
47785;BME280;35233;55.686;37.848;2023-06-05T04:07:07;100203.91;;;17.24;50.85
47785;BME280;35233;55.686;37.848;2023-06-05T04:09:33;100196.19;;;17.17;49.82
47785;BME280;35233;55.686;37.848;2023-06-05T04:11:58;100201.97;;;17.27;50.68
47785;BME280;35233;55.686;37.848;2023-06-05T04:14:24;100209.06;;;17.28;50.33
47785;BME280;35233;55.686;37.848;2023-06-05T04:16:50;100198.22;;;17.31;49.95
47785;BME280;35233;55.686;37.848;2023-06-05T04:19:15;100190.94;;;17.35;50.44
47785;BME280;35233;55.686;37.848;2023-06-05T04:21:41;100197.94;;;17.37;50.57
47785;BME280;35233;55.686;37.848;2023-06-05T04:24:10;100194.56;;;17.34;50.27
47785;BME280;35233;55.686;37.848;2023-06-05T04:26:37;100204.44;;;17.32;50.45
47785;BME280;35233;55.686;37.848;2023-06-05T04:29:03;100202.81;;;17.28;50.24
47785;BME280;35233;55.686;37.848;2023-06-05T04:31:35;100194.91;;;17.26;50.31
47785;BME280;35233;55.686;37.848;2023-06-05T04:34:01;100205.28;;;17.32;50.68
47785;BME280;35233;55.686;37.848;2023-06-05T04:36:28;100205.16;;;17.35;50.33
47785;BME280;35233;55.686;37.848;2023-06-05T04:38:53;100194.41;;;17.37;49.97
47785;BME280;35233;55.686;37.848;2023-06-05T04:41:19;100191.88;;;17.34;50.59
47785;BME280;35233;55.686;37.848;2023-06-05T04:43:47;100198.94;;;17.35;50.54
47785;BME280;35233;55.686;37.848;2023-06-05T04:46:12;100197.38;;;17.31;50.28
47785;BME280;35233;55.686;37.848;2023-06-05T04:48:38;100188.84;;;17.23;50.07
47785;BME280;35233;55.686;37.848;2023-06-05T04:51:03;100198.59;;;17.24;50.10
47785;BME280;35233;55.686;37.848;2023-06-05T04:53:29;100184.56;;;17.18;50.72
47785;BME280;35233;55.686;37.848;2023-06-05T04:55:57;100199.81;;;17.35;49.91
47785;BME280;35233;55.686;37.848;2023-06-05T04:58:24;100193.00;;;17.47;49.68
47785;BME280;35233;55.686;37.848;2023-06-05T05:00:50;100200.72;;;17.72;49.49
47785;BME280;35233;55.686;37.848;2023-06-05T05:03:15;100206.28;;;17.86;49.68
47785;BME280;35233;55.686;37.848;2023-06-05T05:05:41;100194.41;;;17.92;49.34
47785;BME280;35233;55.686;37.848;2023-06-05T05:08:07;100194.72;;;18.03;49.37
47785;BME280;35233;55.686;37.848;2023-06-05T05:10:32;100201.66;;;18.07;49.18
47785;BME280;35233;55.686;37.848;2023-06-05T05:12:58;100200.16;;;18.02;49.24
47785;BME280;35233;55.686;37.848;2023-06-05T05:15:29;100197.31;;;17.87;49.13
47785;BME280;35233;55.686;37.848;2023-06-05T05:17:55;100199.34;;;17.82;49.77
47785;BME280;35233;55.686;37.848;2023-06-05T05:20:22;100194.13;;;17.79;49.52
47785;BME280;35233;55.686;37.848;2023-06-05T05:22:48;100201.00;;;17.85;49.63
47785;BME280;35233;55.686;37.848;2023-06-05T05:25:13;100200.78;;;17.90;49.86
47785;BME280;35233;55.686;37.848;2023-06-05T05:30:23;100205.34;;;18.05;50.24
47785;BME280;35233;55.686;37.848;2023-06-05T05:32:49;100203.78;;;18.01;49.76
47785;BME280;35233;55.686;37.848;2023-06-05T05:35:14;100194.66;;;18.05;50.47
47785;BME280;35233;55.686;37.848;2023-06-05T05:37:40;100198.72;;;18.12;50.36
47785;BME280;35233;55.686;37.848;2023-06-05T05:40:06;100196.94;;;18.13;50.58
47785;BME280;35233;55.686;37.848;2023-06-05T05:42:32;100204.81;;;18.16;49.96
47785;BME280;35233;55.686;37.848;2023-06-05T05:44:57;100203.47;;;18.24;50.05
47785;BME280;35233;55.686;37.848;2023-06-05T05:47:23;100205.19;;;18.25;50.30
47785;BME280;35233;55.686;37.848;2023-06-05T05:49:48;100203.38;;;18.26;50.29
47785;BME280;35233;55.686;37.848;2023-06-05T05:52:14;100216.28;;;18.35;49.93
47785;BME280;35233;55.686;37.848;2023-06-05T05:54:39;100208.25;;;18.35;50.04
47785;BME280;35233;55.686;37.848;2023-06-05T05:57:05;100206.91;;;18.44;50.34
47785;BME280;35233;55.686;37.848;2023-06-05T05:59:32;100208.56;;;18.46;50.31
47785;BME280;35233;55.686;37.848;2023-06-05T06:01:58;100206.53;;;18.51;50.50
47785;BME280;35233;55.686;37.848;2023-06-05T06:04:24;100204.72;;;18.52;50.06
47785;BME280;35233;55.686;37.848;2023-06-05T06:06:51;100208.88;;;18.58;50.38
47785;BME280;35233;55.686;37.848;2023-06-05T06:09:18;100200.06;;;18.55;50.01
47785;BME280;35233;55.686;37.848;2023-06-05T06:11:44;100216.84;;;18.59;49.94
47785;BME280;35233;55.686;37.848;2023-06-05T06:14:27;100211.03;;;18.51;50.12
47785;BME280;35233;55.686;37.848;2023-06-05T06:16:53;100208.09;;;18.38;50.19
47785;BME280;35233;55.686;37.848;2023-06-05T06:19:21;100208.09;;;18.21;50.75
47785;BME280;35233;55.686;37.848;2023-06-05T06:21:49;100204.09;;;18.12;50.94
47785;BME280;35233;55.686;37.848;2023-06-05T06:24:15;100207.16;;;18.04;51.15
47785;BME280;35233;55.686;37.848;2023-06-05T06:26:46;100210.75;;;18.03;50.99
47785;BME280;35233;55.686;37.848;2023-06-05T06:29:18;100215.97;;;18.06;50.68
47785;BME280;35233;55.686;37.848;2023-06-05T06:31:45;100216.69;;;18.10;50.72
47785;BME280;35233;55.686;37.848;2023-06-05T06:34:19;100205.56;;;18.00;51.53
47785;BME280;35233;55.686;37.848;2023-06-05T06:36:47;100190.63;;;17.96;51.10
47785;BME280;35233;55.686;37.848;2023-06-05T06:39:16;100213.59;;;18.18;50.73
47785;BME280;35233;55.686;37.848;2023-06-05T06:41:44;100215.34;;;18.36;50.79
47785;BME280;35233;55.686;37.848;2023-06-05T06:44:10;100216.13;;;18.38;50.93
47785;BME280;35233;55.686;37.848;2023-06-05T06:46:38;100194.44;;;18.27;50.95
47785;BME280;35233;55.686;37.848;2023-06-05T06:49:04;100210.78;;;18.38;50.96
47785;BME280;35233;55.686;37.848;2023-06-05T06:51:31;100212.38;;;18.42;50.93
47785;BME280;35233;55.686;37.848;2023-06-05T06:53:57;100208.25;;;18.35;51.13
47785;BME280;35233;55.686;37.848;2023-06-05T06:56:23;100201.34;;;18.31;50.87
47785;BME280;35233;55.686;37.848;2023-06-05T06:58:48;100204.97;;;18.30;51.18
47785;BME280;35233;55.686;37.848;2023-06-05T07:01:14;100209.06;;;18.37;51.52
47785;BME280;35233;55.686;37.848;2023-06-05T07:03:40;100212.66;;;18.53;51.21
47785;BME280;35233;55.686;37.848;2023-06-05T07:06:09;100199.34;;;18.52;51.20
47785;BME280;35233;55.686;37.848;2023-06-05T07:08:34;100205.03;;;18.46;51.00
47785;BME280;35233;55.686;37.848;2023-06-05T07:11:03;100205.91;;;18.46;51.45
47785;BME280;35233;55.686;37.848;2023-06-05T07:13:28;100211.66;;;18.39;52.05
47785;BME280;35233;55.686;37.848;2023-06-05T07:15:54;100202.91;;;18.35;51.51
47785;BME280;35233;55.686;37.848;2023-06-05T07:18:20;100200.22;;;18.52;51.37
47785;BME280;35233;55.686;37.848;2023-06-05T07:20:46;100194.78;;;18.71;50.97
47785;BME280;35233;55.686;37.848;2023-06-05T07:23:14;100183.38;;;18.68;51.10
47785;BME280;35233;55.686;37.848;2023-06-05T07:25:39;100200.34;;;18.67;51.19
47785;BME280;35233;55.686;37.848;2023-06-05T07:28:09;100190.47;;;18.51;51.50
47785;BME280;35233;55.686;37.848;2023-06-05T07:30:38;100199.91;;;18.59;51.46
47785;BME280;35233;55.686;37.848;2023-06-05T07:33:04;100194.81;;;18.54;51.26
47785;BME280;35233;55.686;37.848;2023-06-05T07:35:30;100198.13;;;18.42;51.95
47785;BME280;35233;55.686;37.848;2023-06-05T07:37:55;100195.44;;;18.42;51.93
47785;BME280;35233;55.686;37.848;2023-06-05T07:40:30;100189.16;;;18.43;51.87
47785;BME280;35233;55.686;37.848;2023-06-05T07:42:55;100195.13;;;18.48;51.91
47785;BME280;35233;55.686;37.848;2023-06-05T07:45:21;100190.53;;;18.50;51.46
47785;BME280;35233;55.686;37.848;2023-06-05T07:47:46;100196.63;;;18.53;51.53
47785;BME280;35233;55.686;37.848;2023-06-05T07:50:12;100192.13;;;18.54;51.59
47785;BME280;35233;55.686;37.848;2023-06-05T07:52:37;100195.50;;;18.58;51.81
47785;BME280;35233;55.686;37.848;2023-06-05T07:55:03;100184.00;;;18.55;51.96
47785;BME280;35233;55.686;37.848;2023-06-05T07:57:29;100196.94;;;18.65;51.65
47785;BME280;35233;55.686;37.848;2023-06-05T07:59:54;100190.44;;;18.69;51.76
47785;BME280;35233;55.686;37.848;2023-06-05T08:02:30;100192.50;;;18.81;51.14
47785;BME280;35233;55.686;37.848;2023-06-05T08:05:11;100198.13;;;18.92;51.17
47785;BME280;35233;55.686;37.848;2023-06-05T08:07:39;100193.47;;;18.96;50.83
47785;BME280;35233;55.686;37.848;2023-06-05T08:10:06;100197.28;;;18.92;50.71
47785;BME280;35233;55.686;37.848;2023-06-05T08:12:31;100192.63;;;18.95;50.98
47785;BME280;35233;55.686;37.848;2023-06-05T08:18:06;100182.81;;;19.12;50.54
47785;BME280;35233;55.686;37.848;2023-06-05T08:20:38;100182.53;;;19.00;50.64
47785;BME280;35233;55.686;37.848;2023-06-05T08:23:03;100181.84;;;18.97;50.82
47785;BME280;35233;55.686;37.848;2023-06-05T08:25:30;100174.66;;;18.97;50.83
47785;BME280;35233;55.686;37.848;2023-06-05T08:27:56;100160.75;;;18.91;51.30
47785;BME280;35233;55.686;37.848;2023-06-05T08:30:22;100167.56;;;18.96;51.06
47785;BME280;35233;55.686;37.848;2023-06-05T08:32:47;100167.72;;;18.93;50.84
47785;BME280;35233;55.686;37.848;2023-06-05T08:35:16;100167.03;;;18.90;50.89
47785;BME280;35233;55.686;37.848;2023-06-05T08:37:41;100163.56;;;18.88;51.13
47785;BME280;35233;55.686;37.848;2023-06-05T08:40:07;100176.69;;;18.76;51.44
47785;BME280;35233;55.686;37.848;2023-06-05T08:42:37;100149.69;;;18.64;51.43
47785;BME280;35233;55.686;37.848;2023-06-05T08:45:08;100156.16;;;18.60;51.52
47785;BME280;35233;55.686;37.848;2023-06-05T08:47:38;100168.75;;;18.58;51.89
47785;BME280;35233;55.686;37.848;2023-06-05T08:50:05;100166.84;;;18.60;51.72
47785;BME280;35233;55.686;37.848;2023-06-05T08:52:39;100155.81;;;18.66;51.67
47785;BME280;35233;55.686;37.848;2023-06-05T08:55:10;100165.09;;;18.76;51.36
47785;BME280;35233;55.686;37.848;2023-06-05T08:57:38;100166.91;;;18.75;51.46
47785;BME280;35233;55.686;37.848;2023-06-05T09:00:05;100169.09;;;18.85;51.31
47785;BME280;35233;55.686;37.848;2023-06-05T09:02:35;100159.38;;;18.99;51.00
47785;BME280;35233;55.686;37.848;2023-06-05T09:05:03;100159.81;;;19.08;50.97
47785;BME280;35233;55.686;37.848;2023-06-05T09:07:32;100157.06;;;19.09;50.75
47785;BME280;35233;55.686;37.848;2023-06-05T09:09:58;100138.38;;;19.08;50.72
47785;BME280;35233;55.686;37.848;2023-06-05T09:12:24;100145.91;;;19.01;51.29
47785;BME280;35233;55.686;37.848;2023-06-05T09:14:52;100139.59;;;19.02;50.96
47785;BME280;35233;55.686;37.848;2023-06-05T09:17:21;100138.66;;;19.03;50.83
47785;BME280;35233;55.686;37.848;2023-06-05T09:19:47;100129.75;;;19.03;51.01
47785;BME280;35233;55.686;37.848;2023-06-05T09:22:13;100125.28;;;19.03;50.72
47785;BME280;35233;55.686;37.848;2023-06-05T09:24:40;100126.47;;;19.13;50.43
47785;BME280;35233;55.686;37.848;2023-06-05T09:27:09;100122.50;;;19.20;50.47
47785;BME280;35233;55.686;37.848;2023-06-05T09:29:37;100129.25;;;19.43;50.20
47785;BME280;35233;55.686;37.848;2023-06-05T09:34:33;100113.84;;;19.47;50.07
47785;BME280;35233;55.686;37.848;2023-06-05T09:37:02;100106.91;;;19.59;49.98
47785;BME280;35233;55.686;37.848;2023-06-05T09:39:29;100114.94;;;19.75;49.73
47785;BME280;35233;55.686;37.848;2023-06-05T09:41:57;100114.66;;;19.79;49.71
47785;BME280;35233;55.686;37.848;2023-06-05T09:44:23;100098.34;;;19.68;49.73
47785;BME280;35233;55.686;37.848;2023-06-05T09:46:52;100101.28;;;19.79;49.73
47785;BME280;35233;55.686;37.848;2023-06-05T09:49:19;100093.06;;;19.97;49.33
47785;BME280;35233;55.686;37.848;2023-06-05T09:51:45;100094.81;;;20.12;49.37
47785;BME280;35233;55.686;37.848;2023-06-05T09:54:12;100090.84;;;20.19;49.00
47785;BME280;35233;55.686;37.848;2023-06-05T09:56:39;100096.88;;;20.23;48.94
47785;BME280;35233;55.686;37.848;2023-06-05T09:59:06;100098.69;;;20.22;48.88
47785;BME280;35233;55.686;37.848;2023-06-05T10:01:35;100087.94;;;20.08;49.20
47785;BME280;35233;55.686;37.848;2023-06-05T10:04:05;100079.72;;;19.81;49.60
47785;BME280;35233;55.686;37.848;2023-06-05T10:06:33;100094.47;;;19.58;49.87
47785;BME280;35233;55.686;37.848;2023-06-05T10:08:59;100094.13;;;19.48;50.12
47785;BME280;35233;55.686;37.848;2023-06-05T10:11:26;100106.06;;;19.42;50.63
47785;BME280;35233;55.686;37.848;2023-06-05T10:13:55;100112.97;;;19.31;50.01
47785;BME280;35233;55.686;37.848;2023-06-05T10:16:25;100130.97;;;19.29;50.33
47785;BME280;35233;55.686;37.848;2023-06-05T10:18:55;100144.38;;;19.29;50.58
47785;BME280;35233;55.686;37.848;2023-06-05T10:21:22;100142.72;;;19.26;50.43
47785;BME280;35233;55.686;37.848;2023-06-05T10:23:51;100143.75;;;19.23;50.86
47785;BME280;35233;55.686;37.848;2023-06-05T10:26:31;100132.88;;;19.27;50.33
47785;BME280;35233;55.686;37.848;2023-06-05T10:32:04;100113.25;;;19.42;50.44
47785;BME280;35233;55.686;37.848;2023-06-05T10:40:09;100107.81;;;19.43;50.40
47785;BME280;35233;55.686;37.848;2023-06-05T10:42:35;100104.25;;;19.27;50.72
47785;BME280;35233;55.686;37.848;2023-06-05T10:45:02;100099.69;;;19.29;51.00
47785;BME280;35233;55.686;37.848;2023-06-05T10:52:49;100108.50;;;19.15;51.50
47785;BME280;35233;55.686;37.848;2023-06-05T10:55:18;100110.50;;;19.12;51.41
47785;BME280;35233;55.686;37.848;2023-06-05T11:00:36;100091.56;;;19.31;50.90
47785;BME280;35233;55.686;37.848;2023-06-05T11:03:06;100092.22;;;19.34;50.76
47785;BME280;35233;55.686;37.848;2023-06-05T11:05:32;100095.16;;;19.45;50.50
47785;BME280;35233;55.686;37.848;2023-06-05T11:08:10;100092.03;;;19.53;50.42
47785;BME280;35233;55.686;37.848;2023-06-05T11:11:04;100087.72;;;19.51;50.71
47785;BME280;35233;55.686;37.848;2023-06-05T11:13:55;100078.03;;;19.48;50.53
47785;BME280;35233;55.686;37.848;2023-06-05T11:16:29;100077.78;;;19.53;50.34
47785;BME280;35233;55.686;37.848;2023-06-05T11:27:54;100073.84;;;19.28;51.03
47785;BME280;35233;55.686;37.848;2023-06-05T11:30:28;100068.59;;;19.11;51.23
47785;BME280;35233;55.686;37.848;2023-06-05T11:33:05;100064.97;;;18.96;51.32
47785;BME280;35233;55.686;37.848;2023-06-05T11:35:33;100069.97;;;18.86;51.69
47785;BME280;35233;55.686;37.848;2023-06-05T11:38:19;100091.56;;;18.83;51.63
47785;BME280;35233;55.686;37.848;2023-06-05T11:40:48;100098.19;;;18.76;51.49
47785;BME280;35233;55.686;37.848;2023-06-05T11:43:14;100104.00;;;18.67;51.79
47785;BME280;35233;55.686;37.848;2023-06-05T11:45:43;100132.59;;;18.66;52.15
47785;BME280;35233;55.686;37.848;2023-06-05T11:48:14;100133.97;;;18.58;52.19
47785;BME280;35233;55.686;37.848;2023-06-05T11:50:52;100121.59;;;18.55;52.76
47785;BME280;35233;55.686;37.848;2023-06-05T11:53:24;100136.47;;;18.61;52.83
47785;BME280;35233;55.686;37.848;2023-06-05T11:55:51;100122.06;;;18.63;53.01
47785;BME280;35233;55.686;37.848;2023-06-05T11:58:24;100102.78;;;18.74;52.65
47785;BME280;35233;55.686;37.848;2023-06-05T12:00:50;100100.91;;;18.92;52.45
47785;BME280;35233;55.686;37.848;2023-06-05T12:03:23;100111.88;;;19.19;51.46
47785;BME280;35233;55.686;37.848;2023-06-05T12:05:49;100111.69;;;19.38;51.24
47785;BME280;35233;55.686;37.848;2023-06-05T12:08:21;100105.91;;;19.30;51.21
47785;BME280;35233;55.686;37.848;2023-06-05T12:10:47;100113.53;;;19.06;51.96
47785;BME280;35233;55.686;37.848;2023-06-05T12:13:13;100115.03;;;18.78;52.33
47785;BME280;35233;55.686;37.848;2023-06-05T12:15:38;100122.06;;;18.63;53.46
47785;BME280;35233;55.686;37.848;2023-06-05T12:18:04;100121.88;;;18.50;53.23
47785;BME280;35233;55.686;37.848;2023-06-05T12:20:38;100123.06;;;18.45;53.43
47785;BME280;35233;55.686;37.848;2023-06-05T12:23:07;100135.84;;;18.55;53.35
47785;BME280;35233;55.686;37.848;2023-06-05T12:29:05;100137.41;;;18.77;52.41
47785;BME280;35233;55.686;37.848;2023-06-05T12:31:44;100097.06;;;18.47;52.74
47785;BME280;35233;55.686;37.848;2023-06-05T12:34:10;100144.50;;;18.61;53.00
47785;BME280;35233;55.686;37.848;2023-06-05T12:36:39;100147.50;;;18.54;52.95
47785;BME280;35233;55.686;37.848;2023-06-05T12:39:13;100152.06;;;18.52;53.29
47785;BME280;35233;55.686;37.848;2023-06-05T12:41:39;100130.13;;;18.46;53.09
47785;BME280;35233;55.686;37.848;2023-06-05T12:44:06;100142.25;;;18.53;52.76
47785;BME280;35233;55.686;37.848;2023-06-05T12:46:37;100137.81;;;18.52;53.24
47785;BME280;35233;55.686;37.848;2023-06-05T12:49:07;100123.41;;;18.54;52.96
47785;BME280;35233;55.686;37.848;2023-06-05T12:51:32;100102.88;;;18.55;53.02
47785;BME280;35233;55.686;37.848;2023-06-05T12:54:01;100101.06;;;19.05;52.13
47785;BME280;35233;55.686;37.848;2023-06-05T12:56:37;100085.84;;;19.37;51.26
47785;BME280;35233;55.686;37.848;2023-06-05T12:59:30;100107.28;;;19.99;50.33
47785;BME280;35233;55.686;37.848;2023-06-05T13:01:58;100098.97;;;20.18;50.00
47785;BME280;35233;55.686;37.848;2023-06-05T13:04:24;100098.78;;;20.49;49.17
47785;BME280;35233;55.686;37.848;2023-06-05T13:06:53;100108.13;;;20.72;48.60
47785;BME280;35233;55.686;37.848;2023-06-05T13:09:20;100070.06;;;20.51;48.74
47785;BME280;35233;55.686;37.848;2023-06-05T13:11:46;100100.66;;;20.77;48.10
47785;BME280;35233;55.686;37.848;2023-06-05T13:14:11;100109.00;;;20.73;48.86
47785;BME280;35233;55.686;37.848;2023-06-05T13:16:37;100107.47;;;20.69;48.59
47785;BME280;35233;55.686;37.848;2023-06-05T13:19:09;100089.50;;;20.41;48.70
47785;BME280;35233;55.686;37.848;2023-06-05T13:21:36;100099.56;;;20.37;48.84
47785;BME280;35233;55.686;37.848;2023-06-05T13:24:17;100067.41;;;20.07;49.35